aviador You're here:

SCPQ Decoded Metar

in
Report Time2017-12-11 22:00:00
UTC Time2017-12-11 22:53:51
Flight Rules vfr VFR
Wind130° at 06 kt
W.Rank130° ranks 16
Current wind is above 130° avg. (5.3)
Visibility9999 m
Phenomena:N/A
Clouds:Few 002 Hf
Expected CloudBase > 2,800 ft AGL from Temp-Dew spread
CeilingNone
Temp20°C
Dew Point13°C (64% RH)
AAT18.8°C
QNH1011 hPa
Raw Report
METAR SCPQ 112200Z AUTO 13006KT 080V160 9999 FEW002 20/13 Q1011=

Extra information for SCPQ:More info

Social comments